Time;durP1;ratioP1;P1;durP2;ratioP2;P2;SDS_P1;SDS_P2;PMS_P1;PMS_P2;Temp;Humidity;BMP_temperature;BMP_pressure;BME280_temperature;BME280_humidity;BME280_pressure;Samples;Min_cycle;Max_cycle;Signal;HPM_P1;HPM_P2
2021/06/06 00:01:35;;;;;;;5.97;4.50;;;;;;;13.22;100.00;94589.19;4979877;28;20673;-84
2021/06/06 00:04:10;;;;;;;4.27;3.87;;;;;;;13.31;100.00;94566.81;4986897;28;20196;-85
2021/06/06 00:06:38;;;;;;;4.20;3.90;;;;;;;13.07;100.00;94550.75;4986193;28;20188;-85
2021/06/06 00:09:09;;;;;;;4.60;4.20;;;;;;;13.06;100.00;94543.88;4984522;28;20204;-85
2021/06/06 00:11:39;;;;;;;4.03;3.73;;;;;;;13.19;100.00;94531.56;4978036;28;20211;-85
2021/06/06 00:14:09;;;;;;;3.43;3.13;;;;;;;13.23;100.00;94525.66;4977906;28;20239;-85
2021/06/06 00:16:39;;;;;;;4.03;3.73;;;;;;;13.39;100.00;94494.47;4979201;28;20262;-85
2021/06/06 00:19:08;;;;;;;3.83;3.47;;;;;;;13.38;100.00;94490.25;4979403;28;20678;-85
2021/06/06 00:21:37;;;;;;;4.33;3.93;;;;;;;13.39;100.00;94474.19;4979825;28;20236;-84
2021/06/06 00:24:05;;;;;;;8.13;3.60;;;;;;;13.22;100.00;94468.63;4982522;28;20658;-84
2021/06/06 00:26:32;;;;;;;4.73;3.50;;;;;;;13.21;100.00;94476.78;4981523;28;20192;-84
2021/06/06 00:28:59;;;;;;;4.17;3.87;;;;;;;13.22;100.00;94467.84;4983615;28;20205;-84
2021/06/06 00:31:26;;;;;;;4.43;3.63;;;;;;;13.06;100.00;94463.94;4987169;28;20251;-85
2021/06/06 00:33:53;;;;;;;4.07;3.37;;;;;;;12.85;100.00;94451.97;4984100;28;20806;-85
2021/06/06 00:36:23;;;;;;;3.60;3.37;;;;;;;12.99;100.00;94428.91;4986453;28;20216;-84
2021/06/06 00:38:50;;;;;;;6.90;3.63;;;;;;;13.00;100.00;94406.78;4984917;28;20201;-85
2021/06/06 00:41:19;;;;;;;3.80;3.50;;;;;;;12.96;100.00;94403.00;4980174;28;20201;-85
2021/06/06 00:43:47;;;;;;;4.20;3.80;;;;;;;12.91;100.00;94390.44;4988243;28;20205;-85
2021/06/06 00:46:14;;;;;;;4.60;4.20;;;;;;;12.82;100.00;94389.13;4992219;28;20251;-85
2021/06/06 00:48:41;;;;;;;4.07;3.77;;;;;;;12.79;100.00;94377.19;4982069;28;20205;-84
2021/06/06 00:51:14;;;;;;;4.10;3.70;;;;;;;12.70;100.00;94373.22;4986810;28;20817;-84
2021/06/06 00:53:46;;;;;;;5.50;4.00;;;;;;;12.86;100.00;94361.31;4981951;28;20267;-84
2021/06/06 00:56:16;;;;;;;4.53;4.23;;;;;;;12.96;100.00;94337.06;4985984;28;20208;-84
2021/06/06 00:58:45;;;;;;;3.80;3.43;;;;;;;12.92;100.00;94338.50;4988706;28;20275;-84
2021/06/06 01:01:14;;;;;;;4.97;4.40;;;;;;;12.79;100.00;94336.84;4989041;28;20228;-85
2021/06/06 01:03:41;;;;;;;4.70;4.20;;;;;;;12.73;100.00;94333.25;4989979;28;20196;-85
2021/06/06 01:06:14;;;;;;;4.67;4.27;;;;;;;12.53;100.00;94328.16;4986439;28;20200;-84
2021/06/06 01:08:42;;;;;;;7.50;4.53;;;;;;;12.69;100.00;94321.53;4985986;28;20219;-84
2021/06/06 01:11:16;;;;;;;4.73;3.90;;;;;;;12.69;100.00;94299.66;4985445;28;20197;-85
2021/06/06 01:13:46;;;;;;;4.37;4.00;;;;;;;12.80;100.00;94278.63;4989640;28;20197;-81
2021/06/06 01:16:19;;;;;;;4.47;4.07;;;;;;;12.63;100.00;94282.06;4989467;28;20220;-82
2021/06/06 01:18:48;;;;;;;5.03;3.80;;;;;;;12.66;100.00;94269.25;4992834;28;20836;-82
2021/06/06 01:21:42;;;;;;;4.80;4.40;;;;;;;12.66;100.00;94289.53;4990641;28;20192;-82
2021/06/06 01:24:25;;;;;;;4.20;3.90;;;;;;;12.49;100.00;94270.88;4995897;28;20574;-81
2021/06/06 01:26:57;;;;;;;4.97;4.07;;;;;;;12.59;100.00;94266.69;4985479;28;20271;-81
2021/06/06 01:29:35;;;;;;;5.20;3.77;;;;;;;12.79;100.00;94228.75;4984933;28;20191;-81
2021/06/06 01:32:07;;;;;;;5.77;4.67;;;;;;;12.85;100.00;94217.34;4987185;28;20189;-82
2021/06/06 01:34:35;;;;;;;4.40;4.00;;;;;;;12.58;100.00;94228.19;4983260;28;20359;-82
2021/06/06 01:37:06;;;;;;;4.73;4.33;;;;;;;12.38;100.00;94232.88;4987599;28;20232;-82
2021/06/06 01:39:38;;;;;;;3.87;3.57;;;;;;;12.30;100.00;94248.97;4988030;28;20196;-82
2021/06/06 01:42:10;;;;;;;9.03;4.07;;;;;;;12.42;100.00;94231.41;4995696;28;20195;-82
2021/06/06 01:44:38;;;;;;;4.67;4.10;;;;;;;12.40;100.00;94207.13;4993306;28;20589;-82
2021/06/06 01:47:10;;;;;;;4.93;4.47;;;;;;;12.35;100.00;94204.34;4989612;28;20224;-82
2021/06/06 01:49:44;;;;;;;4.83;3.53;;;;;;;12.43;100.00;94196.13;4991429;28;20212;-81
2021/06/06 01:52:13;;;;;;;4.83;4.00;;;;;;;12.59;100.00;94198.19;4983360;28;20682;-81
2021/06/06 01:54:42;;;;;;;4.00;3.57;;;;;;;12.79;100.00;94160.22;4981418;28;20666;-81
2021/06/06 01:57:14;;;;;;;6.07;5.57;;;;;;;12.43;100.00;94153.19;4975800;28;20229;-81
2021/06/06 01:59:46;;;;;;;4.73;4.40;;;;;;;12.02;100.00;94168.66;4989415;28;20323;-82
2021/06/06 02:02:13;;;;;;;4.63;4.23;;;;;;;12.17;100.00;94173.53;4987318;28;20200;-82
2021/06/06 02:04:41;;;;;;;3.90;3.60;;;;;;;12.09;100.00;94140.41;4987271;28;20197;-82
2021/06/06 02:07:11;;;;;;;4.17;3.87;;;;;;;12.17;100.00;94065.56;4992968;28;20279;-82
2021/06/06 02:09:45;;;;;;;4.30;3.97;;;;;;;12.14;100.00;94037.84;4982628;28;20722;-82
2021/06/06 02:12:12;;;;;;;4.13;3.73;;;;;;;12.15;100.00;94020.22;4991040;28;20184;-81
2021/06/06 02:14:42;;;;;;;5.83;3.90;;;;;;;12.02;100.00;94015.13;4988921;28;20583;-82
2021/06/06 02:17:12;;;;;;;4.93;4.17;;;;;;;11.99;100.00;94011.13;4988911;28;20651;-82
2021/06/06 02:19:41;;;;;;;4.77;4.37;;;;;;;12.04;100.00;94002.53;4987676;28;20199;-82
2021/06/06 02:22:11;;;;;;;3.80;3.50;;;;;;;12.32;100.00;94000.13;4990543;28;20258;-82
2021/06/06 02:24:39;;;;;;;4.80;4.33;;;;;;;12.31;100.00;93955.59;4990411;28;20200;-82
2021/06/06 02:27:14;;;;;;;4.80;4.40;;;;;;;12.19;100.00;93941.56;4984099;28;20665;-82
2021/06/06 02:29:57;;;;;;;4.33;4.03;;;;;;;12.13;100.00;93943.28;4984538;28;20194;-82
2021/06/06 02:32:33;;;;;;;6.17;4.77;;;;;;;12.03;100.00;93946.47;4984483;28;20216;-82
2021/06/06 02:35:08;;;;;;;4.37;4.07;;;;;;;11.97;100.00;93960.50;4982018;28;20224;-82
2021/06/06 02:37:47;;;;;;;4.37;4.00;;;;;;;12.10;100.00;93946.38;4990470;28;20247;-82
2021/06/06 02:40:21;;;;;;;7.53;4.50;;;;;;;12.05;100.00;93952.31;4994386;28;20200;-82
2021/06/06 02:42:52;;;;;;;4.30;3.90;;;;;;;12.17;100.00;93939.16;4989337;28;20653;-82
2021/06/06 02:45:23;;;;;;;3.73;3.53;;;;;;;12.18;100.00;93932.06;4974998;28;20193;-82
2021/06/06 02:47:53;;;;;;;5.73;4.23;;;;;;;12.06;100.00;93945.22;4982133;28;20205;-82
2021/06/06 02:50:25;;;;;;;4.20;3.90;;;;;;;12.17;100.00;93943.63;4986944;28;20212;-82
2021/06/06 02:52:56;;;;;;;6.20;3.77;;;;;;;12.47;100.00;93941.75;4985243;28;20228;-81
2021/06/06 02:55:27;;;;;;;4.10;3.73;;;;;;;12.49;100.00;93952.84;4983626;28;20207;-85
2021/06/06 02:57:58;;;;;;;4.07;3.70;;;;;;;12.49;100.00;93971.31;4984080;28;20216;-82
2021/06/06 03:00:31;;;;;;;4.27;3.97;;;;;;;12.28;100.00;94008.69;4989271;28;20190;-84
2021/06/06 03:03:04;;;;;;;3.80;3.50;;;;;;;12.42;100.00;94011.94;4980578;28;20228;-83
2021/06/06 03:05:32;;;;;;;3.60;3.37;;;;;;;12.38;100.00;94025.56;4986309;28;20268;-83
2021/06/06 03:08:03;;;;;;;4.73;4.17;;;;;;;12.22;100.00;94031.47;4984185;28;20232;-83
2021/06/06 03:10:33;;;;;;;4.67;4.20;;;;;;;12.27;100.00;94043.97;4988090;28;20199;-84
2021/06/06 03:13:06;;;;;;;4.47;4.07;;;;;;;12.05;100.00;94052.38;4989025;28;20250;-86
2021/06/06 03:15:37;;;;;;;4.30;3.90;;;;;;;12.34;100.00;94042.84;4982726;28;20199;-83
2021/06/06 03:18:06;;;;;;;4.70;3.77;;;;;;;12.40;100.00;94028.00;4986799;28;20208;-83
2021/06/06 03:20:37;;;;;;;5.47;3.80;;;;;;;12.48;100.00;94018.97;4991553;28;20203;-86
2021/06/06 03:23:07;;;;;;;4.27;3.90;;;;;;;12.31;100.00;94034.59;4986060;28;20580;-82
2021/06/06 03:25:42;;;;;;;4.03;3.73;;;;;;;12.35;100.00;94027.84;4986408;28;20219;-84
2021/06/06 03:28:13;;;;;;;4.00;3.60;;;;;;;12.38;100.00;94027.41;4990184;28;20355;-85
2021/06/06 03:30:48;;;;;;;4.53;4.13;;;;;;;12.21;100.00;94034.31;4974307;28;20204;-85
2021/06/06 03:33:20;;;;;;;8.63;3.93;;;;;;;12.19;100.00;94044.25;4974189;28;20267;-85
2021/06/06 03:35:47;;;;;;;9.73;6.20;;;;;;;12.06;100.00;94045.25;4974545;28;20193;-85
2021/06/06 03:38:15;;;;;;;4.90;3.70;;;;;;;12.12;100.00;94039.09;4974253;28;20239;-86
2021/06/06 03:40:46;;;;;;;4.03;3.73;;;;;;;12.31;100.00;94043.31;4977336;28;20238;-87
2021/06/06 03:43:18;;;;;;;4.73;4.33;;;;;;;12.31;100.00;94016.97;4991477;28;20284;-86
2021/06/06 03:45:45;;;;;;;4.30;3.93;;;;;;;12.36;100.00;94005.75;4993587;28;20188;-85
2021/06/06 03:48:12;;;;;;;5.90;4.53;;;;;;;12.52;100.00;93993.75;4993741;28;20280;-85
2021/06/06 03:50:41;;;;;;;8.73;4.90;;;;;;;12.47;100.00;93960.22;4994251;28;20206;-88
2021/06/06 03:53:09;;;;;;;9.37;8.47;;;;;;;12.49;100.00;93952.06;4994077;28;20263;-85
2021/06/06 03:55:36;;;;;;;11.03;10.03;;;;;;;12.49;100.00;93946.78;4995043;28;20200;-92
2021/06/06 03:58:03;;;;;;;6.53;5.93;;;;;;;12.32;100.00;93944.00;4993242;28;20223;-84
2021/06/06 04:00:35;;;;;;;7.50;6.87;;;;;;;12.49;100.00;93952.06;4987841;28;20204;-82
2021/06/06 04:03:06;;;;;;;6.10;5.60;;;;;;;12.65;100.00;93924.25;4987391;28;20193;-83
2021/06/06 04:05:33;;;;;;;5.53;4.97;;;;;;;12.50;100.00;93907.03;4973468;28;20288;-82
2021/06/06 04:08:00;;;;;;;8.20;7.47;;;;;;;12.59;100.00;93937.28;4973818;28;20571;-83
2021/06/06 04:10:27;;;;;;;6.13;5.53;;;;;;;12.48;100.00;93934.66;4988010;28;20208;-82
2021/06/06 04:12:54;;;;;;;10.23;7.20;;;;;;;12.64;100.00;93970.06;4983133;28;20212;-84
2021/06/06 04:15:21;;;;;;;11.43;8.13;;;;;;;12.73;100.00;93971.34;4973416;28;20589;-83
2021/06/06 04:17:50;;;;;;;9.67;7.13;;;;;;;12.82;100.00;93964.72;4973150;28;20256;-85
2021/06/06 04:20:19;;;;;;;6.90;6.30;;;;;;;12.81;100.00;93965.72;4973254;28;20208;-83
2021/06/06 04:22:46;;;;;;;5.80;4.97;;;;;;;12.85;100.00;93951.09;4973545;28;20201;-83
2021/06/06 04:25:15;;;;;;;5.30;4.80;;;;;;;12.94;100.00;93946.25;4987125;28;20239;-82
2021/06/06 04:27:42;;;;;;;9.03;6.00;;;;;;;12.94;100.00;93862.69;4986966;28;20200;-82
2021/06/06 04:30:12;;;;;;;8.83;7.80;;;;;;;12.97;100.00;93846.41;4990225;28;20295;-82
2021/06/06 04:32:40;;;;;;;7.30;6.67;;;;;;;13.09;100.00;93846.38;4988955;28;20727;-83
2021/06/06 04:35:09;;;;;;;6.77;6.17;;;;;;;13.14;100.00;93846.47;4992617;28;20275;-83
2021/06/06 04:37:36;;;;;;;4.80;4.40;;;;;;;12.98;100.00;93855.91;4992682;28;20599;-82
2021/06/06 04:40:04;;;;;;;7.00;5.27;;;;;;;13.01;100.00;93873.91;4992200;28;20695;-83
2021/06/06 04:42:32;;;;;;;4.30;3.60;;;;;;;12.93;100.00;93881.38;4992077;28;20218;-82
2021/06/06 04:44:58;;;;;;;4.13;3.80;;;;;;;12.87;100.00;93893.63;4991599;28;20239;-82
2021/06/06 04:47:25;;;;;;;4.73;3.97;;;;;;;12.91;100.00;93923.78;4991837;28;20231;-83
2021/06/06 04:49:52;;;;;;;4.90;3.70;;;;;;;13.00;100.00;93932.94;4991411;28;20275;-82
2021/06/06 04:52:21;;;;;;;4.13;3.83;;;;;;;13.15;100.00;93929.03;4991609;28;20200;-82
2021/06/06 04:54:48;;;;;;;5.30;4.80;;;;;;;13.36;100.00;93854.59;4991841;28;20200;-83
2021/06/06 04:57:15;;;;;;;5.30;4.80;;;;;;;13.51;100.00;93865.44;4991111;28;20601;-83
2021/06/06 04:59:42;;;;;;;4.53;4.23;;;;;;;13.59;100.00;93900.41;4991805;28;20299;-84
2021/06/06 05:02:11;;;;;;;4.20;3.80;;;;;;;13.67;100.00;93942.25;4991724;28;20196;-84
2021/06/06 05:04:40;;;;;;;4.70;4.07;;;;;;;13.77;100.00;93959.09;4992099;28;20196;-84
2021/06/06 05:07:07;;;;;;;3.97;3.67;;;;;;;13.92;100.00;93950.66;4991915;28;20258;-83
2021/06/06 05:09:35;;;;;;;4.90;3.70;;;;;;;14.06;100.00;93961.75;4991849;28;20200;-84
2021/06/06 05:12:02;;;;;;;4.27;3.97;;;;;;;14.20;100.00;93976.28;4991514;28;20398;-85
2021/06/06 05:14:29;;;;;;;4.63;4.23;;;;;;;14.39;100.00;93976.88;4991740;28;20198;-85
2021/06/06 05:16:56;;;;;;;4.20;3.40;;;;;;;14.57;100.00;93977.72;4991784;28;20224;-85
2021/06/06 05:19:23;;;;;;;4.03;3.57;;;;;;;14.75;100.00;94043.59;4991609;28;20239;-86
2021/06/06 05:21:50;;;;;;;4.87;4.13;;;;;;;14.90;100.00;94088.03;4991604;28;20200;-85
2021/06/06 05:24:17;;;;;;;4.33;3.97;;;;;;;15.01;100.00;94124.19;4991020;28;20197;-85
2021/06/06 05:26:45;;;;;;;4.30;3.97;;;;;;;15.26;100.00;94166.16;4991719;28;20203;-85
2021/06/06 05:29:12;;;;;;;4.77;4.37;;;;;;;15.45;100.00;94244.31;4991195;28;20209;-86
2021/06/06 05:31:39;;;;;;;6.40;3.93;;;;;;;15.61;100.00;94297.53;4991294;28;20204;-85
2021/06/06 05:34:06;;;;;;;4.20;3.77;;;;;;;15.84;100.00;94344.31;4991054;28;20757;-85
2021/06/06 05:36:33;;;;;;;4.60;3.27;;;;;;;16.11;100.00;94381.63;4991061;28;20205;-86
2021/06/06 05:39:00;;;;;;;3.93;3.57;;;;;;;16.25;100.00;94406.78;4991395;28;20197;-86
2021/06/06 05:41:26;;;;;;;5.40;3.80;;;;;;;16.48;100.00;94436.84;4994994;28;20216;-86
2021/06/06 05:43:55;;;;;;;4.20;3.90;;;;;;;16.63;100.00;94479.53;4994974;28;20294;-86
2021/06/06 05:46:22;;;;;;;3.33;3.10;;;;;;;16.78;100.00;94532.88;4994865;28;20667;-85
2021/06/06 05:48:49;;;;;;;3.97;3.57;;;;;;;17.04;100.00;94586.38;4994489;28;20203;-85
2021/06/06 05:51:17;;;;;;;5.60;3.63;;;;;;;17.22;100.00;94626.00;4994403;28;20188;-85
2021/06/06 05:53:44;;;;;;;3.43;3.10;;;;;;;17.28;100.00;94723.28;4994939;28;20556;-86
2021/06/06 05:56:12;;;;;;;7.40;3.47;;;;;;;17.42;100.00;94831.84;4994847;28;20204;-86
2021/06/06 05:58:41;;;;;;;6.90;3.70;;;;;;;17.56;100.00;94905.75;4994533;28;20229;-85
2021/06/06 06:01:10;;;;;;;3.80;3.33;;;;;;;17.80;100.00;94926.94;4994612;28;20752;-85
2021/06/06 06:03:37;;;;;;;3.40;3.10;;;;;;;17.96;100.00;94936.03;4994337;28;20628;-86
2021/06/06 06:06:06;;;;;;;3.60;3.30;;;;;;;17.93;100.00;94969.19;4994501;28;20206;-85
2021/06/06 06:08:35;;;;;;;5.10;4.57;;;;;;;18.22;100.00;94999.28;4994158;28;20196;-86
2021/06/06 06:11:03;;;;;;;4.20;3.90;;;;;;;18.41;100.00;95018.50;4994388;28;20295;-85
2021/06/06 06:13:31;;;;;;;3.93;3.27;;;;;;;18.55;100.00;95080.22;4994452;28;20235;-86
2021/06/06 06:15:58;;;;;;;3.27;3.00;;;;;;;18.71;100.00;95097.28;4993863;28;20202;-86
2021/06/06 06:18:29;;;;;;;3.73;3.43;;;;;;;18.72;100.00;95107.72;4994503;28;20224;-86
2021/06/06 06:20:56;;;;;;;2.90;2.70;;;;;;;18.99;100.00;95131.91;4994942;28;20280;-87
2021/06/06 06:23:23;;;;;;;4.00;3.70;;;;;;;19.36;100.00;95138.66;4994713;28;20207;-83
2021/06/06 06:25:51;;;;;;;4.13;3.57;;;;;;;19.65;100.00;95108.25;4994987;28;20211;-84
2021/06/06 06:28:18;;;;;;;3.23;3.03;;;;;;;20.01;100.00;95078.63;4994990;28;20196;-84
2021/06/06 06:30:45;;;;;;;6.63;3.83;;;;;;;20.21;100.00;95097.56;4995023;28;20263;-84
2021/06/06 06:33:12;;;;;;;3.67;3.30;;;;;;;20.22;100.00;95141.06;4994381;28;20235;-85
2021/06/06 06:35:41;;;;;;;3.50;3.30;;;;;;;20.26;100.00;95100.28;4994748;28;20232;-84
2021/06/06 06:38:08;;;;;;;3.83;3.47;;;;;;;20.40;100.00;95106.91;4994253;28;20407;-84
2021/06/06 06:40:37;;;;;;;6.03;3.97;;;;;;;20.64;100.00;95103.97;4994904;28;20608;-85
2021/06/06 06:43:04;;;;;;;3.40;3.10;;;;;;;20.51;100.00;95110.53;4994811;28;20216;-84
2021/06/06 06:45:34;;;;;;;3.77;3.40;;;;;;;20.53;100.00;95113.72;4994436;28;20200;-84
2021/06/06 06:48:03;;;;;;;3.23;2.93;;;;;;;20.81;100.00;95125.25;4994149;28;20247;-86
2021/06/06 06:50:30;;;;;;;3.40;3.10;;;;;;;20.82;100.00;95149.06;4994557;28;20649;-83
2021/06/06 06:53:00;;;;;;;3.47;3.17;;;;;;;21.19;100.00;95187.63;4993317;28;20262;-86
2021/06/06 06:55:28;;;;;;;4.13;3.20;;;;;;;21.31;100.00;95207.81;4994322;28;20196;-86
2021/06/06 06:57:56;;;;;;;3.47;3.23;;;;;;;21.44;100.00;95241.41;4994312;28;20223;-86
2021/06/06 07:00:25;;;;;;;3.20;3.00;;;;;;;21.31;100.00;95276.50;4994608;28;20564;-88
2021/06/06 07:02:52;;;;;;;3.57;3.37;;;;;;;21.39;100.00;95235.97;4995097;28;20200;-87
2021/06/06 07:05:19;;;;;;;5.27;3.30;;;;;;;21.71;100.00;95201.25;4994908;28;20588;-88
2021/06/06 07:07:46;;;;;;;4.47;3.47;;;;;;;21.74;100.00;95240.06;4994405;28;20196;-88
2021/06/06 07:10:19;;;;;;;3.53;2.70;;;;;;;21.62;100.00;95216.16;4994737;28;20200;-86
2021/06/06 07:12:46;;;;;;;3.27;2.97;;;;;;;21.91;100.00;95235.41;4994142;28;20231;-86
2021/06/06 07:15:15;;;;;;;6.97;3.00;;;;;;;22.30;100.00;95238.66;4994032;28;20200;-85
2021/06/06 07:17:42;;;;;;;3.33;2.80;;;;;;;22.24;100.00;95285.22;4993899;28;20708;-83
2021/06/06 07:20:13;;;;;;;8.83;3.10;;;;;;;22.35;100.00;95296.81;4994104;28;20196;-86
2021/06/06 07:22:40;;;;;;;3.47;2.83;;;;;;;22.55;100.00;95283.56;4993993;28;20192;-84
2021/06/06 07:25:10;;;;;;;4.33;3.93;;;;;;;22.68;100.00;95227.91;4993904;28;20203;-86
2021/06/06 07:27:43;;;;;;;6.20;4.30;;;;;;;22.48;100.00;95220.56;4993808;28;20192;-82
2021/06/06 07:30:13;;;;;;;5.57;3.40;;;;;;;22.77;100.00;95178.16;4993560;28;20199;-85
2021/06/06 07:32:40;;;;;;;4.17;3.77;;;;;;;22.78;100.00;95244.03;4993402;28;20207;-82
2021/06/06 07:35:08;;;;;;;5.97;5.23;;;;;;;22.66;100.00;95219.34;4993270;28;20232;-83
2021/06/06 07:37:35;;;;;;;6.87;6.17;;;;;;;22.60;100.00;95126.66;4993410;28;20263;-82
2021/06/06 07:40:04;;;;;;;6.10;5.50;;;;;;;22.75;100.00;95113.31;4993271;28;20684;-82
2021/06/06 07:42:32;;;;;;;6.47;5.87;;;;;;;22.54;100.00;95150.72;4993487;28;20223;-82
2021/06/06 07:45:00;;;;;;;6.33;5.53;;;;;;;22.83;100.00;95126.22;4993559;28;20635;-82
2021/06/06 07:47:27;;;;;;;6.00;5.50;;;;;;;22.79;100.00;95141.19;4993287;28;20197;-86
2021/06/06 07:49:54;;;;;;;5.80;5.27;;;;;;;23.19;100.00;95078.06;4993181;28;20693;-87
2021/06/06 07:52:21;;;;;;;6.70;4.60;;;;;;;23.13;100.00;95130.84;4993529;28;20278;-83
2021/06/06 07:54:51;;;;;;;5.67;5.07;;;;;;;23.06;100.00;95150.94;4993316;28;20204;-83
2021/06/06 07:57:18;;;;;;;5.17;4.63;;;;;;;23.22;100.00;95147.22;4993076;28;20224;-83
2021/06/06 07:59:45;;;;;;;4.90;4.50;;;;;;;23.21;100.00;95140.28;4992987;28;20647;-82
2021/06/06 08:02:13;;;;;;;7.87;4.83;;;;;;;23.47;100.00;95123.13;4992828;28;20205;-83
2021/06/06 08:04:40;;;;;;;6.70;5.07;;;;;;;23.63;100.00;95137.34;4993068;28;20203;-83
2021/06/06 08:07:07;;;;;;;5.17;4.60;;;;;;;23.47;100.00;95186.69;4992988;28;20238;-84
2021/06/06 08:09:34;;;;;;;4.80;4.47;;;;;;;23.19;100.00;95233.53;4992737;28;20673;-84
2021/06/06 08:12:01;;;;;;;5.27;4.87;;;;;;;23.37;100.00;95186.66;4992759;28;20295;-83
2021/06/06 08:14:28;;;;;;;6.50;4.20;;;;;;;23.30;100.00;95203.00;4992831;28;20200;-83
2021/06/06 08:16:54;;;;;;;4.37;3.97;;;;;;;23.30;100.00;95194.97;4993113;28;20274;-83
2021/06/06 08:19:23;;;;;;;9.90;4.90;;;;;;;23.46;100.00;95179.72;4992610;28;20235;-83
2021/06/06 08:21:50;;;;;;;4.77;4.40;;;;;;;23.28;100.00;95194.44;4990653;28;20262;-83
2021/06/06 08:24:17;;;;;;;4.07;3.77;;;;;;;23.25;100.00;95194.97;4992085;28;20204;-83
2021/06/06 08:26:44;;;;;;;4.40;4.00;;;;;;;23.55;100.00;95167.38;4992766;28;20196;-83
2021/06/06 08:29:12;;;;;;;5.00;4.47;;;;;;;23.55;100.00;95209.47;4992308;28;20208;-83
2021/06/06 08:31:42;;;;;;;5.90;4.07;;;;;;;23.53;100.00;95239.25;4992771;28;20207;-83
2021/06/06 08:34:10;;;;;;;4.53;4.13;;;;;;;23.58;100.00;95246.50;4992216;28;20315;-83
2021/06/06 08:36:41;;;;;;;4.70;4.30;;;;;;;23.69;100.00;95249.00;4992726;28;20188;-83
2021/06/06 08:39:10;;;;;;;4.20;3.80;;;;;;;23.72;100.00;95267.22;4992319;28;20696;-83
2021/06/06 08:41:44;;;;;;;4.70;3.60;;;;;;;24.08;100.00;95253.84;4992662;28;20230;-83
2021/06/06 08:44:17;;;;;;;4.17;3.73;;;;;;;24.04;100.00;95228.63;4992623;28;20188;-83
2021/06/06 08:46:53;;;;;;;3.53;3.23;;;;;;;24.01;100.00;95245.25;4992915;28;20188;-83
2021/06/06 08:49:19;;;;;;;5.20;3.47;;;;;;;23.89;100.00;95271.53;4992434;28;20227;-84
2021/06/06 08:51:50;;;;;;;3.87;3.50;;;;;;;24.06;100.00;95273.97;4992841;28;20270;-84
2021/06/06 08:54:26;;;;;;;3.47;2.83;;;;;;;24.27;100.00;95270.22;4992294;28;20181;-83
2021/06/06 08:56:57;;;;;;;4.37;3.70;;;;;;;24.43;100.00;95236.94;4992570;28;20188;-83
2021/06/06 08:59:32;;;;;;;3.30;3.10;;;;;;;24.55;100.00;95243.88;4992065;28;20220;-83
2021/06/06 09:02:07;;;;;;;3.30;3.00;;;;;;;24.28;100.00;95340.81;4992450;28;20192;-83
2021/06/06 09:04:36;;;;;;;3.53;3.23;;;;;;;24.35;100.00;95318.03;4992213;28;20223;-84
2021/06/06 09:07:09;;;;;;;3.67;3.37;;;;;;;24.56;100.00;95332.28;4992690;28;20228;-83
2021/06/06 09:09:39;;;;;;;4.27;2.97;;;;;;;24.46;100.00;95329.59;4992279;28;20259;-83
2021/06/06 09:12:09;;;;;;;3.30;3.00;;;;;;;24.76;100.00;95309.13;4992665;28;20185;-83
2021/06/06 09:14:36;;;;;;;3.57;3.27;;;;;;;24.76;100.00;95346.75;4992425;28;20197;-83
2021/06/06 09:17:07;;;;;;;4.37;3.63;;;;;;;24.59;100.00;95382.78;4996129;28;20228;-83
2021/06/06 09:19:43;;;;;;;3.27;3.07;;;;;;;24.85;100.00;95345.16;4995784;28;20192;-84
2021/06/06 09:22:13;;;;;;;3.60;3.30;;;;;;;24.82;100.00;95332.25;4996387;28;20193;-84
2021/06/06 09:24:45;;;;;;;3.30;3.10;;;;;;;24.64;100.00;95403.47;4995811;28;20227;-84
2021/06/06 09:27:16;;;;;;;5.93;3.63;;;;;;;24.94;100.00;95364.19;4996182;28;20220;-84
2021/06/06 09:29:44;;;;;;;4.70;3.17;;;;;;;24.83;100.00;95414.47;4995563;28;20188;-84
2021/06/06 09:32:15;;;;;;;3.50;3.20;;;;;;;24.98;100.00;95405.63;4995823;28;20200;-84
2021/06/06 09:34:55;;;;;;;3.60;3.30;;;;;;;24.97;100.00;95406.66;4995503;28;20281;-84
2021/06/06 09:37:25;;;;;;;3.43;3.13;;;;;;;24.90;100.00;95426.59;4995702;28;20689;-84
2021/06/06 09:40:00;;;;;;;3.53;3.20;;;;;;;24.97;100.00;95385.97;4995588;28;20189;-84
2021/06/06 09:42:34;;;;;;;3.63;3.30;;;;;;;25.22;100.00;95393.25;4995816;28;20196;-84
2021/06/06 09:45:10;;;;;;;3.43;3.13;;;;;;;24.97;100.00;95452.38;4994163;28;20840;-84
2021/06/06 09:47:37;;;;;;;5.73;3.27;;;;;;;25.42;100.00;95386.19;4994793;28;20191;-84
2021/06/06 09:50:11;;;;;;;2.83;2.63;;;;;;;25.83;100.00;95457.66;4994205;28;20200;-84
2021/06/06 09:52:42;;;;;;;3.10;2.90;;;;;;;25.66;100.00;95542.44;4994394;28;20628;-84
2021/06/06 09:55:17;;;;;;;4.68;2.58;;;;;;;25.53;100.00;95611.88;4994243;28;20258;-84
2021/06/06 09:57:44;;;;;;;2.97;2.75;;;;;;;25.84;100.00;95496.16;4993907;28;20274;-83
2021/06/06 10:00:22;;;;;;;3.97;3.58;;;;;;;25.90;100.00;95529.22;4994230;28;20207;-84
2021/06/06 10:02:52;;;;;;;2.97;2.72;;;;;;;25.49;100.00;95597.34;4994334;28;20192;-84
2021/06/06 10:05:28;;;;;;;8.38;2.80;;;;;;;25.96;100.00;95614.31;4994504;28;20243;-84
2021/06/06 10:07:59;;;;;;;3.35;3.05;;;;;;;26.03;100.00;95560.97;4994265;28;20219;-84
2021/06/06 10:10:30;;;;;;;5.95;2.88;;;;;;;26.26;100.00;95551.47;4994020;28;20193;-84
2021/06/06 10:12:58;;;;;;;3.30;2.95;;;;;;;26.82;100.00;95396.78;4994050;28;20188;-84
2021/06/06 10:15:40;;;;;;;4.55;3.35;;;;;;;27.05;100.00;95592.88;4993997;28;20236;-84
2021/06/06 10:18:13;;;;;;;2.90;2.55;;;;;;;26.54;100.00;95736.00;4994152;28;20284;-83
2021/06/06 10:20:42;;;;;;;4.25;2.80;;;;;;;26.26;100.00;95772.38;4993941;28;20180;-84
2021/06/06 10:23:17;;;;;;;3.38;3.17;;;;;;;26.43;100.00;95731.66;4993414;28;20211;-85
2021/06/06 10:25:50;;;;;;;3.40;3.10;;;;;;;26.74;100.00;95714.38;4994175;28;20203;-84
2021/06/06 10:28:23;;;;;;;3.00;2.80;;;;;;;26.74;100.00;95721.63;4993842;28;20630;-84
2021/06/06 10:30:57;;;;;;;3.03;2.67;;;;;;;26.65;100.00;95810.34;4993842;28;20192;-84
2021/06/06 10:33:28;;;;;;;2.80;2.60;;;;;;;26.77;100.00;95748.03;4993572;28;20247;-85
2021/06/06 10:35:58;;;;;;;3.83;3.33;;;;;;;26.66;100.00;95790.41;4993518;28;20195;-84
2021/06/06 10:38:27;;;;;;;4.30;2.75;;;;;;;26.66;100.00;95808.47;4993138;28;20224;-85
2021/06/06 10:40:58;;;;;;;2.53;2.13;;;;;;;26.63;100.00;95830.56;4994985;28;20292;-84
2021/06/06 10:43:33;;;;;;;4.38;2.50;;;;;;;26.35;100.00;95832.69;4994645;28;20203;-84
2021/06/06 10:46:11;;;;;;;3.53;3.03;;;;;;;26.93;100.00;95790.06;4994625;28;20649;-85
2021/06/06 10:48:45;;;;;;;3.85;3.05;;;;;;;26.55;100.00;95804.97;4994468;28;20224;-84
2021/06/06 10:51:17;;;;;;;3.25;2.75;;;;;;;26.37;100.00;95797.41;4994526;28;20192;-85
2021/06/06 10:53:58;;;;;;;5.50;3.10;;;;;;;26.38;100.00;95786.34;4994232;28;20201;-85
2021/06/06 10:56:36;;;;;;;4.30;3.20;;;;;;;26.02;100.00;95809.78;4994147;28;20192;-84
2021/06/06 10:59:06;;;;;;;3.28;3.03;;;;;;;25.66;100.00;95868.06;4994504;28;20271;-85
2021/06/06 11:01:51;;;;;;;3.77;3.40;;;;;;;25.67;100.00;95783.56;4994274;28;20204;-84
2021/06/06 11:04:22;;;;;;;3.65;3.33;;;;;;;25.81;100.00;95804.38;4994050;28;20198;-85
2021/06/06 11:07:05;;;;;;;3.63;3.33;;;;;;;25.43;100.00;95824.41;4993921;28;20223;-85
2021/06/06 11:09:37;;;;;;;3.37;3.17;;;;;;;25.45;100.00;95773.03;4994216;28;20681;-85
2021/06/06 11:12:09;;;;;;;2.80;2.60;;;;;;;25.32;100.00;95841.56;4994073;28;20193;-85
2021/06/06 11:14:46;;;;;;;4.63;2.95;;;;;;;25.66;100.00;95741.59;4994213;28;20195;-85
2021/06/06 11:17:28;;;;;;;5.68;5.13;;;;;;;25.66;100.00;95755.03;4993975;28;20595;-85
2021/06/06 11:19:55;;;;;;;4.82;3.97;;;;;;;25.71;100.00;95793.53;4993784;28;20192;-85
2021/06/06 11:22:35;;;;;;;4.03;3.20;;;;;;;25.70;100.00;95818.03;4993822;28;20207;-85
2021/06/06 11:25:05;;;;;;;5.22;4.28;;;;;;;25.66;100.00;95738.91;4993956;28;20251;-84
2021/06/06 11:27:36;;;;;;;3.10;2.90;;;;;;;25.53;100.00;95812.88;4993520;28;20208;-84
2021/06/06 11:30:32;;;;;;;2.85;2.65;;;;;;;25.02;100.00;95818.00;4993565;28;20191;-85
2021/06/06 11:33:01;;;;;;;5.57;3.43;;;;;;;24.82;100.00;95811.44;4993438;28;20661;-85
2021/06/06 11:35:48;;;;;;;2.77;2.57;;;;;;;24.83;100.00;95785.34;4993430;28;20227;-84
2021/06/06 11:38:26;;;;;;;3.00;2.70;;;;;;;24.82;100.00;95760.38;4992846;28;20695;-85